Time;durP1;ratioP1;P1;durP2;ratioP2;P2;SDS_P1;SDS_P2;PMS_P1;PMS_P2;Temp;Humidity;BMP_temperature;BMP_pressure;BME280_temperature;BME280_humidity;BME280_pressure;Samples;Min_cycle;Max_cycle;Signal;HPM_P1;HPM_P2
2023/03/30 00:04:41;;;;;;;;;;;;;;;11.26;92.75781;100546.9;;;;-74
2023/03/30 00:09:41;;;;;;;;;;;;;;;11.26;92.81543;100529.2;;;;-75
2023/03/30 00:14:42;;;;;;;;;;;;;;;11.29;92.31348;100524;;;;-75
2023/03/30 00:16:52;;;;;;;7.1;3.3;;;;;;;;;;;;;-75
2023/03/30 00:23:16;;;;;;;;;;;;;;;11.35;90.60352;100519.7;;;;-75
2023/03/30 00:28:14;;;;;;;;;;;;;;;11.43;89.87793;100527;;;;-75
2023/03/30 00:33:14;;;;;;;;;;;;;;;11.49;90.17773;100516.6;;;;-76
2023/03/30 00:38:14;;;;;;;;;;;;;;;11.45;91.89453;100484.5;;;;-75
2023/03/30 00:43:19;;;;;;;;;;;;;;;11.36;93.17871;100478.9;;;;-75
2023/03/30 00:46:51;;;;;;;8.2;2.5;;;;;;;;;;;;;-73
2023/03/30 00:48:17;;;;;;;;;;;;;;;11.28;93.70215;100475.2;;;;-74
2023/03/30 00:53:19;;;;;;;;;;;;;;;11.24;94.14746;100468.4;;;;-75
2023/03/30 00:58:16;;;;;;;;;;;;;;;11.21;94.4375;100473.2;;;;-75
2023/03/30 01:03:20;;;;;;;;;;;;;;;11.18;94.27734;100460.4;;;;-76
2023/03/30 01:08:17;;;;;;;;;;;;;;;11.16;94.77832;100454.2;;;;-76
2023/03/30 01:13:18;;;;;;;;;;;;;;;11.14;94.97266;100451.1;;;;-75
2023/03/30 01:17:00;;;;;;;7;2.3;;;;;;;;;;;;;-75
2023/03/30 01:18:27;;;;;;;;;;;;;;;11.11;95.06641;100438;;;;-76
2023/03/30 01:23:26;;;;;;;;;;;;;;;11.07;95.11523;100454;;;;-76
2023/03/30 01:28:31;;;;;;;;;;;;;;;11.04;95.60352;100451.3;;;;-75
2023/03/30 01:33:32;;;;;;;;;;;;;;;11.01;96.04785;100440.3;;;;-76
2023/03/30 01:38:38;;;;;;;;;;;;;;;10.99;96.13184;100442.1;;;;-74
2023/03/30 01:43:21;;;;;;;;;;;;;;;10.98;96.71484;100439.5;;;;-75
2023/03/30 01:46:55;;;;;;;7;2;;;;;;;;;;;;;-76
2023/03/30 01:48:16;;;;;;;;;;;;;;;11;97.22754;100426.2;;;;-74
2023/03/30 01:53:18;;;;;;;;;;;;;;;10.99;97.28906;100411.4;;;;-74
2023/03/30 01:58:17;;;;;;;;;;;;;;;10.97;96.99902;100407.9;;;;-74
2023/03/30 02:03:17;;;;;;;;;;;;;;;10.96;97.22852;100408.5;;;;-74
2023/03/30 02:08:20;;;;;;;;;;;;;;;10.94;96.89355;100402.6;;;;-75
2023/03/30 02:13:15;;;;;;;;;;;;;;;10.93;96.83496;100401.2;;;;-74
2023/03/30 02:16:57;;;;;;;7;1.8;;;;;;;;;;;;;-73
2023/03/30 02:18:15;;;;;;;;;;;;;;;10.92;96.5918;100392.6;;;;-75
2023/03/30 02:23:14;;;;;;;;;;;;;;;10.94;96.20996;100393.7;;;;-75
2023/03/30 02:28:17;;;;;;;;;;;;;;;10.97;96.18359;100406;;;;-75
2023/03/30 02:33:20;;;;;;;;;;;;;;;10.99;96.44043;100405.2;;;;-76
2023/03/30 02:38:26;;;;;;;;;;;;;;;11;96.22461;100409;;;;-75
2023/03/30 02:43:21;;;;;;;;;;;;;;;11.03;96.25;100404;;;;-74
2023/03/30 02:47:02;;;;;;;6.7;1.9;;;;;;;;;;;;;-75
2023/03/30 02:48:29;;;;;;;;;;;;;;;11.06;96.45703;100399.5;;;;-75
2023/03/30 02:53:18;;;;;;;;;;;;;;;11.08;96.15234;100399;;;;-74
2023/03/30 02:58:20;;;;;;;;;;;;;;;11.08;96.79199;100395.2;;;;-75
2023/03/30 03:03:18;;;;;;;;;;;;;;;11.11;96.67871;100397.7;;;;-74
2023/03/30 03:08:17;;;;;;;;;;;;;;;11.11;96.88574;100397.5;;;;-74
2023/03/30 03:13:19;;;;;;;;;;;;;;;11.16;97.17285;100396.5;;;;-74
2023/03/30 03:16:57;;;;;;;8.9;1.9;;;;;;;;;;;;;-74
2023/03/30 03:18:15;;;;;;;;;;;;;;;11.19;97.70898;100408.8;;;;-75
2023/03/30 03:23:15;;;;;;;;;;;;;;;11.19;97.55469;100406.8;;;;-74
2023/03/30 03:28:15;;;;;;;;;;;;;;;11.22;97.87988;100398.1;;;;-75
2023/03/30 03:33:14;;;;;;;;;;;;;;;11.24;97.68555;100396.5;;;;-74
2023/03/30 03:38:14;;;;;;;;;;;;;;;11.24;97.79785;100372.2;;;;-74
2023/03/30 03:43:17;;;;;;;;;;;;;;;11.24;97.7627;100371.9;;;;-74
2023/03/30 03:46:59;;;;;;;7.2;1.7;;;;;;;;;;;;;-75
2023/03/30 03:48:15;;;;;;;;;;;;;;;11.27;97.28418;100373.3;;;;-74
2023/03/30 03:53:15;;;;;;;;;;;;;;;11.29;97.46582;100366.3;;;;-74
2023/03/30 03:58:14;;;;;;;;;;;;;;;11.3;97.26953;100357.8;;;;-75
2023/03/30 04:03:17;;;;;;;;;;;;;;;11.27;97.27246;100351.8;;;;-75
2023/03/30 04:08:16;;;;;;;;;;;;;;;11.24;97.14746;100345;;;;-74
2023/03/30 04:13:15;;;;;;;;;;;;;;;11.25;97.35938;100336.9;;;;-75
2023/03/30 04:17:00;;;;;;;8.4;1.9;;;;;;;;;;;;;-75
2023/03/30 04:18:20;;;;;;;;;;;;;;;11.23;97.31934;100342;;;;-74
2023/03/30 04:23:20;;;;;;;;;;;;;;;11.19;97.42383;100334.1;;;;-75
2023/03/30 04:28:20;;;;;;;;;;;;;;;11.15;97.53516;100333.5;;;;-76
2023/03/30 04:33:14;;;;;;;;;;;;;;;11.12;97.58398;100330.5;;;;-74
2023/03/30 04:38:21;;;;;;;;;;;;;;;11.1;97.34668;100323.8;;;;-75
2023/03/30 04:43:19;;;;;;;;;;;;;;;11.02;97.29785;100333.1;;;;-74
2023/03/30 04:47:01;;;;;;;11.2;1.9;;;;;;;;;;;;;-74
2023/03/30 04:48:16;;;;;;;;;;;;;;;10.98;97.95996;100330.6;;;;-75
2023/03/30 04:53:18;;;;;;;;;;;;;;;10.92;97.95605;100339.9;;;;-75
2023/03/30 04:58:15;;;;;;;;;;;;;;;10.86;98.20801;100344.9;;;;-74
2023/03/30 05:03:15;;;;;;;;;;;;;;;10.81;98.50488;100341.6;;;;-74
2023/03/30 05:08:14;;;;;;;;;;;;;;;10.76;98.56055;100345.1;;;;-74
2023/03/30 05:13:14;;;;;;;;;;;;;;;10.7;98.66699;100354.1;;;;-74
2023/03/30 05:17:03;;;;;;;10;1.8;;;;;;;;;;;;;-74
2023/03/30 05:18:14;;;;;;;;;;;;;;;10.63;98.83984;100353.2;;;;-75
2023/03/30 05:23:14;;;;;;;;;;;;;;;10.63;98.89258;100359.3;;;;-74
2023/03/30 05:28:15;;;;;;;;;;;;;;;10.66;99.02246;100354.7;;;;-74
2023/03/30 05:33:15;;;;;;;;;;;;;;;10.61;99.02051;100354.7;;;;-75
2023/03/30 05:38:15;;;;;;;;;;;;;;;10.59;98.62109;100347.5;;;;-75
2023/03/30 05:43:14;;;;;;;;;;;;;;;10.54;98.14648;100348.2;;;;-75
2023/03/30 05:47:07;;;;;;;13.7;2.2;;;;;;;;;;;;;-74
2023/03/30 05:48:14;;;;;;;;;;;;;;;10.48;98.2002;100358.6;;;;-74
2023/03/30 05:53:14;;;;;;;;;;;;;;;10.47;98.76758;100358;;;;-75
2023/03/30 05:58:15;;;;;;;;;;;;;;;10.48;98.26563;100352.7;;;;-75
2023/03/30 06:03:14;;;;;;;;;;;;;;;10.49;98.07031;100355;;;;-75
2023/03/30 06:08:15;;;;;;;;;;;;;;;10.51;97.99707;100363.8;;;;-74
2023/03/30 06:13:14;;;;;;;;;;;;;;;10.54;98.03613;100366.1;;;;-74
2023/03/30 06:17:06;;;;;;;14.9;2.8;;;;;;;;;;;;;-74
2023/03/30 06:18:14;;;;;;;;;;;;;;;10.54;98.31348;100371.9;;;;-75
2023/03/30 06:23:17;;;;;;;;;;;;;;;10.57;97.70508;100376.1;;;;-73
2023/03/30 06:28:14;;;;;;;;;;;;;;;10.6;97.90723;100379.9;;;;-77
2023/03/30 06:33:19;;;;;;;;;;;;;;;10.63;98.0127;100373.9;;;;-75
2023/03/30 06:38:17;;;;;;;;;;;;;;;10.64;97.53223;100386;;;;-75
2023/03/30 06:43:18;;;;;;;;;;;;;;;10.67;97.89063;100392.9;;;;-75
2023/03/30 06:47:06;;;;;;;15.7;2.8;;;;;;;;;;;;;-75
2023/03/30 06:48:15;;;;;;;;;;;;;;;10.69;97.82813;100391.9;;;;-75
2023/03/30 06:53:15;;;;;;;;;;;;;;;10.74;97.69531;100400.1;;;;-75
2023/03/30 06:58:15;;;;;;;;;;;;;;;10.76;97.31641;100405.9;;;;-75
2023/03/30 07:03:15;;;;;;;;;;;;;;;10.79;97.43066;100409.8;;;;-70
2023/03/30 07:08:14;;;;;;;;;;;;;;;10.81;97.25977;100428.1;;;;-69
2023/03/30 07:13:16;;;;;;;;;;;;;;;10.83;97.12305;100426.4;;;;-69
2023/03/30 07:17:07;;;;;;;22.9;3.2;;;;;;;;;;;;;-69
2023/03/30 07:18:14;;;;;;;;;;;;;;;10.87;96.98535;100436.3;;;;-70
2023/03/30 07:23:15;;;;;;;;;;;;;;;10.89;96.70313;100442.2;;;;-69
2023/03/30 07:28:15;;;;;;;;;;;;;;;10.92;96.4375;100451.4;;;;-69
2023/03/30 07:33:14;;;;;;;;;;;;;;;10.94;96.14453;100448.9;;;;-70
2023/03/30 07:38:15;;;;;;;;;;;;;;;11.09;95.94434;100457.9;;;;-70
2023/03/30 07:43:14;;;;;;;;;;;;;;;11.24;94.80957;100454.9;;;;-74
2023/03/30 07:47:09;;;;;;;17.2;2.7;;;;;;;;;;;;;-75
2023/03/30 07:48:14;;;;;;;;;;;;;;;11.31;93.73047;100451.2;;;;-75
2023/03/30 07:53:22;;;;;;;;;;;;;;;11.46;92.1377;100465.6;;;;-75
2023/03/30 07:58:15;;;;;;;;;;;;;;;11.68;91.64355;100474.8;;;;-74
2023/03/30 08:03:14;;;;;;;;;;;;;;;12.02;89.75684;100469.6;;;;-74
2023/03/30 08:08:14;;;;;;;;;;;;;;;12.29;88.9248;100477.6;;;;-73
2023/03/30 08:13:15;;;;;;;;;;;;;;;12.51;88.54785;100484.8;;;;-76
2023/03/30 08:17:13;;;;;;;14.5;2.7;;;;;;;;;;;;;-75
2023/03/30 08:18:14;;;;;;;;;;;;;;;12.73;87.69238;100474.7;;;;-74
2023/03/30 08:23:19;;;;;;;;;;;;;;;12.9;86.93945;100490;;;;-74
2023/03/30 08:28:14;;;;;;;;;;;;;;;13.1;86.25684;100489.8;;;;-75
2023/03/30 08:33:14;;;;;;;;;;;;;;;13.13;85.81738;100491.4;;;;-74
2023/03/30 08:38:17;;;;;;;;;;;;;;;13.07;85.64941;100493.2;;;;-74
2023/03/30 08:43:25;;;;;;;;;;;;;;;13.3;84.56152;100504.4;;;;-74
2023/03/30 08:47:14;;;;;;;16.1;2.4;;;;;;;;;;;;;-75
2023/03/30 08:48:17;;;;;;;;;;;;;;;13.58;83.72363;100502.8;;;;-74
2023/03/30 08:53:15;;;;;;;;;;;;;;;13.79;81.89355;100510.6;;;;-75
2023/03/30 08:58:19;;;;;;;;;;;;;;;13.91;80.60059;100501;;;;-74
2023/03/30 09:03:20;;;;;;;;;;;;;;;14.04;79.94531;100524.9;;;;-73
2023/03/30 09:08:19;;;;;;;;;;;;;;;14.32;79.6709;100510.4;;;;-74
2023/03/30 09:13:16;;;;;;;;;;;;;;;14.26;79.32422;100533.8;;;;-76
2023/03/30 09:17:17;;;;;;;18.1;2.5;;;;;;;;;;;;;-75
2023/03/30 09:18:18;;;;;;;;;;;;;;;14.29;79.90039;100537.7;;;;-74
2023/03/30 09:23:16;;;;;;;;;;;;;;;14.31;79.60254;100529.3;;;;-75
2023/03/30 09:28:20;;;;;;;;;;;;;;;14.45;79.49414;100528.7;;;;-74
2023/03/30 09:33:19;;;;;;;;;;;;;;;14.58;78.92383;100567.8;;;;-73
2023/03/30 09:38:20;;;;;;;;;;;;;;;14.6;78.70508;100547.9;;;;-76
2023/03/30 09:43:17;;;;;;;;;;;;;;;14.87;78.07031;100543.1;;;;-75
2023/03/30 09:47:19;;;;;;;18.8;2.8;;;;;;;;;;;;;-74
2023/03/30 09:48:15;;;;;;;;;;;;;;;14.96;77.80859;100570;;;;-74
2023/03/30 09:53:23;;;;;;;;;;;;;;;15.01;76.99902;100552;;;;-75
2023/03/30 09:58:20;;;;;;;;;;;;;;;15.03;77.09082;100560.8;;;;-75
2023/03/30 10:03:21;;;;;;;;;;;;;;;15.06;76.28027;100563.1;;;;-74
2023/03/30 10:08:22;;;;;;;;;;;;;;;14.96;75.99609;100583;;;;-74
2023/03/30 10:13:16;;;;;;;;;;;;;;;15.06;76.31543;100577.4;;;;-74
2023/03/30 10:17:21;;;;;;;24.5;3;;;;;;;;;;;;;-75
2023/03/30 10:18:26;;;;;;;;;;;;;;;15.22;75.8252;100580.1;;;;-74
2023/03/30 10:23:20;;;;;;;;;;;;;;;15.32;75.43945;100607.2;;;;-74
2023/03/30 10:28:20;;;;;;;;;;;;;;;15.41;75.23242;100595.4;;;;-76
2023/03/30 10:33:15;;;;;;;;;;;;;;;15.43;75.32617;100596.4;;;;-74
2023/03/30 10:38:16;;;;;;;;;;;;;;;15.28;74.69531;100594.1;;;;-74
2023/03/30 10:43:15;;;;;;;;;;;;;;;15.51;74.96875;100596.4;;;;-74
2023/03/30 10:47:31;;;;;;;22;2.7;;;;;;;;;;;;;-73
2023/03/30 10:48:25;;;;;;;;;;;;;;;15.51;73.01758;100606.6;;;;-73
2023/03/30 10:53:22;;;;;;;;;;;;;;;15.08;71.60059;100613;;;;-71
2023/03/30 10:58:22;;;;;;;;;;;;;;;15.33;72.25781;100615.2;;;;-74
2023/03/30 11:03:18;;;;;;;;;;;;;;;15.54;72.70801;100612.2;;;;-73
2023/03/30 11:08:18;;;;;;;;;;;;;;;15.59;73.47852;100610.7;;;;-74
2023/03/30 11:13:18;;;;;;;;;;;;;;;15.6;73.7168;100625.6;;;;-74
2023/03/30 11:17:25;;;;;;;17.3;3.2;;;;;;;;;;;;;-74
2023/03/30 11:18:20;;;;;;;;;;;;;;;15.54;73.68359;100612.5;;;;-75
2023/03/30 11:23:27;;;;;;;;;;;;;;;15.8;73.96387;100615;;;;-74
2023/03/30 11:28:18;;;;;;;;;;;;;;;15.64;73.33105;100614.9;;;;-74
2023/03/30 11:33:20;;;;;;;;;;;;;;;15.48;72.81055;100613.6;;;;-74
2023/03/30 11:38:23;;;;;;;;;;;;;;;15.66;74.63477;100618.4;;;;-73
2023/03/30 11:43:15;;;;;;;;;;;;;;;15.77;75.05664;100613.6;;;;-74
2023/03/30 11:47:36;;;;;;;20.7;3.5;;;;;;;;;;;;;-74
2023/03/30 11:48:24;;;;;;;;;;;;;;;15.56;73.5752;100619.6;;;;-74
2023/03/30 11:53:23;;;;;;;;;;;;;;;15.48;73.81934;100638.2;;;;-73
2023/03/30 11:58:18;;;;;;;;;;;;;;;15.51;73.60059;100623.9;;;;-73
2023/03/30 12:03:25;;;;;;;;;;;;;;;15.51;74.61035;100630.9;;;;-74
2023/03/30 12:08:23;;;;;;;;;;;;;;;15.52;74.66602;100638.2;;;;-73
2023/03/30 12:13:16;;;;;;;;;;;;;;;15.31;75.51563;100646.3;;;;-73
2023/03/30 12:17:29;;;;;;;22.3;2.9;;;;;;;;;;;;;-74
2023/03/30 12:18:20;;;;;;;;;;;;;;;15.29;75.37891;100633.2;;;;-73
2023/03/30 12:23:25;;;;;;;;;;;;;;;15.27;75.13965;100645.5;;;;-73
2023/03/30 12:28:19;;;;;;;;;;;;;;;15.44;75.20313;100640.4;;;;-75
2023/03/30 12:33:21;;;;;;;;;;;;;;;15.65;73.87012;100646;;;;-75
2023/03/30 12:38:24;;;;;;;;;;;;;;;15.59;73.9834;100657.2;;;;-74
2023/03/30 12:43:20;;;;;;;;;;;;;;;15.56;73.96875;100633.3;;;;-74
2023/03/30 12:47:35;;;;;;;20.3;3;;;;;;;;;;;;;-74
2023/03/30 12:48:35;;;;;;;;;;;;;;;15.44;75.03516;100649.2;;;;-73
2023/03/30 12:53:26;;;;;;;;;;;;;;;15.41;75.2207;100643.7;;;;-74
2023/03/30 12:58:25;;;;;;;;;;;;;;;15.39;75.14941;100639;;;;-73
2023/03/30 13:03:26;;;;;;;;;;;;;;;15.35;74.83984;100629.1;;;;-73
2023/03/30 13:08:24;;;;;;;;;;;;;;;15.33;74.91406;100640.6;;;;-74
2023/03/30 13:13:25;;;;;;;;;;;;;;;15.18;75.00293;100636.1;;;;-74
2023/03/30 13:17:29;;;;;;;22.5;3.5;;;;;;;;;;;;;-73
2023/03/30 13:18:25;;;;;;;;;;;;;;;15.25;75.9209;100631.2;;;;-73
2023/03/30 13:23:25;;;;;;;;;;;;;;;15.39;76.04492;100616.6;;;;-73
2023/03/30 13:28:26;;;;;;;;;;;;;;;15.38;75.25;100614.5;;;;-74
2023/03/30 13:33:19;;;;;;;;;;;;;;;15.5;75.57227;100619.6;;;;-74
2023/03/30 13:38:22;;;;;;;;;;;;;;;15.38;75.5957;100629.2;;;;-74
2023/03/30 13:43:17;;;;;;;;;;;;;;;15.17;76.16406;100626;;;;-74
2023/03/30 13:47:39;;;;;;;26.6;3.7;;;;;;;;;;;;;-73
2023/03/30 13:48:19;;;;;;;;;;;;;;;15.33;75.72266;100629;;;;-74
2023/03/30 13:53:18;;;;;;;;;;;;;;;15.28;76.37402;100624.6;;;;-74
2023/03/30 13:58:16;;;;;;;;;;;;;;;15.24;75.97559;100622.3;;;;-74
2023/03/30 14:03:25;;;;;;;;;;;;;;;15.26;75.48535;100617.1;;;;-73
2023/03/30 14:08:16;;;;;;;;;;;;;;;15.31;76.36914;100615.9;;;;-76
2023/03/30 14:13:15;;;;;;;;;;;;;;;15.33;75.91309;100619.3;;;;-73
2023/03/30 14:17:33;;;;;;;28.2;3.8;;;;;;;;;;;;;-74
2023/03/30 14:18:23;;;;;;;;;;;;;;;15.21;75.33203;100612.6;;;;-74
2023/03/30 14:23:19;;;;;;;;;;;;;;;15.28;74.96387;100618;;;;-73
2023/03/30 14:28:15;;;;;;;;;;;;;;;15.25;75.99023;100622.2;;;;-73
2023/03/30 14:33:15;;;;;;;;;;;;;;;15.18;75.94238;100627.2;;;;-73
2023/03/30 14:38:17;;;;;;;;;;;;;;;15.03;76.07227;100634.1;;;;-73
2023/03/30 14:43:18;;;;;;;;;;;;;;;14.82;76.44043;100631.8;;;;-74
2023/03/30 14:47:35;;;;;;;21.3;3.6;;;;;;;;;;;;;-77
2023/03/30 14:48:19;;;;;;;;;;;;;;;14.66;77.20703;100625.3;;;;-75
2023/03/30 14:53:15;;;;;;;;;;;;;;;14.6;77.50977;100617.4;;;;-74
2023/03/30 14:58:17;;;;;;;;;;;;;;;14.52;77.62891;100639.1;;;;-74
2023/03/30 15:03:15;;;;;;;;;;;;;;;14.46;77.77441;100615;;;;-74
2023/03/30 15:08:21;;;;;;;;;;;;;;;14.54;77.85547;100621.8;;;;-73
2023/03/30 15:13:20;;;;;;;;;;;;;;;14.51;77.63867;100626.8;;;;-74
2023/03/30 15:17:39;;;;;;;26;3.6;;;;;;;;;;;;;-73
2023/03/30 15:18:18;;;;;;;;;;;;;;;14.42;77.30957;100615.9;;;;-75
2023/03/30 15:23:26;;;;;;;;;;;;;;;14.31;78.21777;100613.9;;;;-74
2023/03/30 15:28:17;;;;;;;;;;;;;;;14.24;78.23828;100616.5;;;;-74
2023/03/30 15:33:22;;;;;;;;;;;;;;;14.24;79.05469;100622.2;;;;-74
2023/03/30 15:38:19;;;;;;;;;;;;;;;14.1;78.92676;100609;;;;-73
2023/03/30 15:43:21;;;;;;;;;;;;;;;14;79.11133;100598.6;;;;-75
2023/03/30 15:47:39;;;;;;;19.8;3.2;;;;;;;;;;;;;-74
2023/03/30 15:48:16;;;;;;;;;;;;;;;13.94;79.37891;100623.4;;;;-74
2023/03/30 15:53:20;;;;;;;;;;;;;;;13.86;79.74512;100614.2;;;;-74
2023/03/30 15:58:16;;;;;;;;;;;;;;;13.83;79.33691;100613.2;;;;-75
2023/03/30 16:03:16;;;;;;;;;;;;;;;13.83;79.6709;100603.1;;;;-75
2023/03/30 16:08:15;;;;;;;;;;;;;;;13.71;79.40332;100604.5;;;;-77
2023/03/30 16:13:16;;;;;;;;;;;;;;;13.67;79.5752;100613.2;;;;-73
2023/03/30 16:17:41;;;;;;;20.1;3.2;;;;;;;;;;;;;-74
2023/03/30 16:18:15;;;;;;;;;;;;;;;13.63;79.94727;100603;;;;-74
2023/03/30 16:23:14;;;;;;;;;;;;;;;13.56;79.76855;100601.8;;;;-74
2023/03/30 16:28:17;;;;;;;;;;;;;;;13.53;79.60449;100592.8;;;;-74
2023/03/30 16:33:14;;;;;;;;;;;;;;;13.47;79.89648;100588.8;;;;-74
2023/03/30 16:38:18;;;;;;;;;;;;;;;13.43;79.98828;100595.7;;;;-74
2023/03/30 16:43:14;;;;;;;;;;;;;;;13.33;80.21582;100590.8;;;;-73
2023/03/30 16:47:43;;;;;;;19.5;2.7;;;;;;;;;;;;;-75
2023/03/30 16:48:17;;;;;;;;;;;;;;;13.25;80.51367;100595.4;;;;-75
2023/03/30 16:53:14;;;;;;;;;;;;;;;13.19;80.61328;100600;;;;-75
2023/03/30 16:58:21;;;;;;;;;;;;;;;13.07;80.625;100590.8;;;;-75
2023/03/30 17:03:14;;;;;;;;;;;;;;;13;81.03516;100589.9;;;;-74
2023/03/30 17:08:17;;;;;;;;;;;;;;;12.94;81.28027;100591.2;;;;-75
2023/03/30 17:13:17;;;;;;;;;;;;;;;12.89;81.31543;100599.6;;;;-74
2023/03/30 17:17:44;;;;;;;22.4;2.8;;;;;;;;;;;;;-75
2023/03/30 17:18:18;;;;;;;;;;;;;;;12.81;81.37793;100595;;;;-75
2023/03/30 17:23:15;;;;;;;;;;;;;;;12.67;82.23047;100593.3;;;;-75
2023/03/30 17:28:20;;;;;;;;;;;;;;;12.63;82.22168;100607.7;;;;-75
2023/03/30 17:33:17;;;;;;;;;;;;;;;12.51;82.37598;100608.4;;;;-73
2023/03/30 17:38:14;;;;;;;;;;;;;;;12.43;82.65039;100602.6;;;;-74
2023/03/30 17:43:14;;;;;;;;;;;;;;;12.34;82.69141;100604;;;;-74
2023/03/30 17:47:46;;;;;;;18.6;2.7;;;;;;;;;;;;;-76
2023/03/30 17:48:18;;;;;;;;;;;;;;;12.2;83.19629;100608.7;;;;-76
2023/03/30 17:58:19;;;;;;;;;;;;;;;12.05;82.98926;100622.3;;;;-74
2023/03/30 18:03:15;;;;;;;;;;;;;;;11.92;83.28906;100621;;;;-75
2023/03/30 18:08:16;;;;;;;;;;;;;;;11.87;83.58887;100621.3;;;;-75
2023/03/30 18:13:15;;;;;;;;;;;;;;;11.82;83.48926;100609.6;;;;-74
2023/03/30 18:17:47;;;;;;;21;2.8;;;;;;;;;;;;;-73
2023/03/30 18:18:21;;;;;;;;;;;;;;;11.76;83.54395;100607.2;;;;-75
2023/03/30 18:23:14;;;;;;;;;;;;;;;11.69;84.08594;100603;;;;-75
2023/03/30 18:28:18;;;;;;;;;;;;;;;11.62;84.16113;100600.2;;;;-74
2023/03/30 18:33:15;;;;;;;;;;;;;;;11.52;84.89648;100600.8;;;;-73
2023/03/30 18:38:15;;;;;;;;;;;;;;;11.44;84.44824;100603.4;;;;-75
2023/03/30 18:43:15;;;;;;;;;;;;;;;11.37;84.6543;100593.2;;;;-73
2023/03/30 18:47:49;;;;;;;15.9;2.5;;;;;;;;;;;;;-74
2023/03/30 18:48:15;;;;;;;;;;;;;;;11.31;84.52246;100590.4;;;;-73
2023/03/30 18:53:17;;;;;;;;;;;;;;;11.25;84.42285;100594.4;;;;-74
2023/03/30 18:58:17;;;;;;;;;;;;;;;11.16;83.77344;100591.5;;;;-74
2023/03/30 19:03:17;;;;;;;;;;;;;;;11.08;84.17969;100591.2;;;;-73
2023/03/30 19:08:17;;;;;;;;;;;;;;;11;84.5293;100593.1;;;;-74
2023/03/30 19:13:15;;;;;;;;;;;;;;;10.89;84.45117;100584.2;;;;-75
2023/03/30 19:17:50;;;;;;;18.1;2.7;;;;;;;;;;;;;-72
2023/03/30 19:18:14;;;;;;;;;;;;;;;10.83;85.64746;100587.3;;;;-74
2023/03/30 19:23:17;;;;;;;;;;;;;;;10.75;85.17773;100587.6;;;;-73
2023/03/30 19:28:15;;;;;;;;;;;;;;;10.7;86.34961;100579.2;;;;-74
2023/03/30 19:33:15;;;;;;;;;;;;;;;10.61;85.61328;100573;;;;-74
2023/03/30 19:38:16;;;;;;;;;;;;;;;10.59;85.9082;100573.4;;;;-74
2023/03/30 19:43:14;;;;;;;;;;;;;;;10.53;86.01953;100578.9;;;;-74
2023/03/30 19:47:52;;;;;;;19;2.7;;;;;;;;;;;;;-74
2023/03/30 19:48:14;;;;;;;;;;;;;;;10.47;86.60254;100576.7;;;;-74
2023/03/30 19:53:14;;;;;;;;;;;;;;;10.44;86.65039;100574.6;;;;-74
2023/03/30 19:58:16;;;;;;;;;;;;;;;10.42;87.44336;100574.2;;;;-74
2023/03/30 20:03:15;;;;;;;;;;;;;;;10.33;87.18262;100568.7;;;;-74
2023/03/30 20:08:16;;;;;;;;;;;;;;;10.33;88.04395;100575.1;;;;-72
2023/03/30 20:13:15;;;;;;;;;;;;;;;10.29;87.52539;100570.6;;;;-73
2023/03/30 20:17:57;;;;;;;19.1;2.7;;;;;;;;;;;;;-73
2023/03/30 20:18:17;;;;;;;;;;;;;;;10.27;87.93164;100559.1;;;;-72
2023/03/30 20:23:14;;;;;;;;;;;;;;;10.23;87.50488;100549.7;;;;-73
2023/03/30 20:28:14;;;;;;;;;;;;;;;10.18;87.73633;100553.9;;;;-73
2023/03/30 20:33:14;;;;;;;;;;;;;;;10.15;88.16113;100540.6;;;;-73
2023/03/30 20:38:14;;;;;;;;;;;;;;;10.12;87.8252;100536.5;;;;-74
2023/03/30 20:43:14;;;;;;;;;;;;;;;10.09;87.74219;100534.6;;;;-73
2023/03/30 20:47:56;;;;;;;14.7;2.8;;;;;;;;;;;;;-73
2023/03/30 20:48:24;;;;;;;;;;;;;;;10.1;88.33789;100527.7;;;;-73
2023/03/30 20:53:15;;;;;;;;;;;;;;;10.08;88.73145;100534.2;;;;-73
2023/03/30 20:58:14;;;;;;;;;;;;;;;10.04;88.56934;100542.5;;;;-73
2023/03/30 21:03:14;;;;;;;;;;;;;;;10.03;88.47949;100536.1;;;;-73
2023/03/30 21:08:18;;;;;;;;;;;;;;;10.03;88.87598;100538.6;;;;-74
2023/03/30 21:13:15;;;;;;;;;;;;;;;10;88.80469;100533.1;;;;-74
2023/03/30 21:17:55;;;;;;;19.7;3;;;;;;;;;;;;;-73
2023/03/30 21:18:14;;;;;;;;;;;;;;;10.03;89.18457;100525.1;;;;-73
2023/03/30 21:23:14;;;;;;;;;;;;;;;10.07;90.00781;100513.9;;;;-74
2023/03/30 21:28:15;;;;;;;;;;;;;;;10.06;90.03906;100507.3;;;;-74
2023/03/30 21:33:17;;;;;;;;;;;;;;;10.04;89.87891;100496.3;;;;-74
2023/03/30 21:38:14;;;;;;;;;;;;;;;10.03;89.50391;100493.1;;;;-73
2023/03/30 21:43:16;;;;;;;;;;;;;;;10.01;90.74316;100486.6;;;;-75
2023/03/30 21:47:56;;;;;;;18.6;2.7;;;;;;;;;;;;;-73
2023/03/30 21:48:14;;;;;;;;;;;;;;;9.99;90.55078;100485.7;;;;-73
2023/03/30 21:53:14;;;;;;;;;;;;;;;9.95;90.84277;100477;;;;-74
2023/03/30 21:58:15;;;;;;;;;;;;;;;9.95;90.76758;100466.6;;;;-74
2023/03/30 22:03:14;;;;;;;;;;;;;;;9.91;91.04395;100466.8;;;;-73
2023/03/30 22:08:15;;;;;;;;;;;;;;;9.89;90.63086;100459.7;;;;-75
2023/03/30 22:13:14;;;;;;;;;;;;;;;9.87;91.28809;100455.5;;;;-74
2023/03/30 22:17:58;;;;;;;19.2;2.7;;;;;;;;;;;;;-74
2023/03/30 22:18:14;;;;;;;;;;;;;;;9.85;91.19629;100447.5;;;;-74
2023/03/30 22:23:15;;;;;;;;;;;;;;;9.82;91.46387;100443.1;;;;-73
2023/03/30 22:28:14;;;;;;;;;;;;;;;9.81;91.6377;100437.2;;;;-73
2023/03/30 22:33:16;;;;;;;;;;;;;;;9.79;91.43555;100436.8;;;;-73
2023/03/30 22:38:14;;;;;;;;;;;;;;;9.77;91.22266;100431.3;;;;-73
2023/03/30 22:43:15;;;;;;;;;;;;;;;9.73;91.10547;100427.8;;;;-74
2023/03/30 22:47:59;;;;;;;17.4;2.5;;;;;;;;;;;;;-73
2023/03/30 22:48:14;;;;;;;;;;;;;;;9.7;90.89941;100416.2;;;;-73
2023/03/30 22:53:14;;;;;;;;;;;;;;;9.67;90.93848;100412.5;;;;-73
2023/03/30 22:58:15;;;;;;;;;;;;;;;9.63;90.2373;100411.5;;;;-74
2023/03/30 23:03:15;;;;;;;;;;;;;;;9.62;90.55469;100407;;;;-73
2023/03/30 23:08:15;;;;;;;;;;;;;;;9.57;91.17969;100398;;;;-74
2023/03/30 23:13:15;;;;;;;;;;;;;;;9.51;90.2002;100382;;;;-74
2023/03/30 23:18:00;;;;;;;18.1;2.5;;;;;;;;;;;;;-73
2023/03/30 23:18:14;;;;;;;;;;;;;;;9.55;91.0918;100370.8;;;;-74
2023/03/30 23:23:14;;;;;;;;;;;;;;;9.46;91.05957;100363;;;;-74
2023/03/30 23:28:15;;;;;;;;;;;;;;;9.47;91.67578;100343.7;;;;-73
2023/03/30 23:33:15;;;;;;;;;;;;;;;9.4;91.0459;100342;;;;-74
2023/03/30 23:38:14;;;;;;;;;;;;;;;9.38;91.16309;100344.4;;;;-74
2023/03/30 23:43:14;;;;;;;;;;;;;;;9.32;90.50098;100335.5;;;;-74
2023/03/30 23:48:02;;;;;;;15.5;2.5;;;;;;;;;;;;;-75
2023/03/30 23:48:16;;;;;;;;;;;;;;;9.33;91.12109;100339.6;;;;-74
2023/03/30 23:53:14;;;;;;;;;;;;;;;9.26;91.07324;100334.2;;;;-74
2023/03/30 23:58:18;;;;;;;;;;;;;;;9.26;90.33594;100334.3;;;;-74
